Terminal Aerodrome Forecast
Issued by NWS Cleveland, OH

Home | Current Version | Previous Version | Graphics & Text | Print | Product List | Glossary Off
Versions: 1 2 3 4 5 6 7 8 9 10 11 12 13 14 15 16 17

520
FTUS41 KCLE 181543 AAA
TAFMFD
TAF AMD
KMFD 181543Z 1816/1912 18012G22KT 5SM -SHRA SCT008 OVC025
      WS020/20045KT
      TEMPO 1816/1818 2SM -SHRA OVC008
     FM181800 20015G32KT 2SM -SHRA VCTS OVC008CB
      TEMPO 1821/1824 VRB30G45KT 1SM +TSRA OVC003CB
     FM190100 27020G35KT 3SM -SHRA BR OVC007
     FM190400 30020G40KT 3SM -SHRA BR OVC010
     FM190600 30020G40KT P6SM VCSH OVC015=

USA.gov is the U.S. government's official web portal to all federal, state and local government web resources and services.